createdAt,value
2018-04-26T00:01:09.382Z,8.97
2018-04-26T00:03:36.936Z,8.87
2018-04-26T00:06:04.643Z,8.83
2018-04-26T00:08:32.189Z,9.07
2018-04-26T00:10:59.742Z,9.10
2018-04-26T00:13:27.266Z,9.16
2018-04-26T00:15:54.890Z,9.22
2018-04-26T00:18:22.422Z,9.18
2018-04-26T00:20:50.005Z,9.17
2018-04-26T00:23:17.526Z,8.87
2018-04-26T00:25:45.079Z,8.88
2018-04-26T00:28:12.676Z,8.74
2018-04-26T00:30:40.231Z,8.67
2018-04-26T00:35:41.601Z,8.18
2018-04-26T00:38:09.167Z,8.48
2018-04-26T00:40:36.718Z,8.57
2018-04-26T00:43:04.381Z,8.45
2018-04-26T00:45:32.043Z,8.51
2018-04-26T00:47:59.657Z,8.37
2018-04-26T00:50:27.329Z,8.24
2018-04-26T00:52:54.932Z,8.09
2018-04-26T00:55:22.588Z,8.24
2018-04-26T00:57:50.102Z,8.14
2018-04-26T01:00:17.663Z,8.08
2018-04-26T01:02:45.251Z,8.20
2018-04-26T01:05:12.936Z,8.24
2018-04-26T01:07:40.593Z,8.21
2018-04-26T01:10:08.170Z,8.16
2018-04-26T01:12:35.812Z,8.27
2018-04-26T01:15:03.473Z,8.15
2018-04-26T01:17:31.019Z,8.11
2018-04-26T01:19:58.601Z,8.12
2018-04-26T01:22:26.256Z,8.21
2018-04-26T01:24:53.833Z,7.92
2018-04-26T01:27:21.372Z,7.79
2018-04-26T01:29:49.033Z,7.84
2018-04-26T01:32:16.567Z,7.81
2018-04-26T01:34:44.616Z,7.81
2018-04-26T01:37:23.846Z,7.79
2018-04-26T01:39:51.457Z,7.97
2018-04-26T01:42:19.024Z,7.73
2018-04-26T01:44:46.679Z,7.79
2018-04-26T01:47:14.748Z,7.55
2018-04-26T01:49:42.308Z,7.61
2018-04-26T01:52:09.970Z,7.59
2018-04-26T01:54:37.538Z,7.67
2018-04-26T01:57:05.095Z,7.55
2018-04-26T01:59:32.647Z,7.45
2018-04-26T02:02:00.310Z,7.42
2018-04-26T02:04:27.870Z,7.31
2018-04-26T02:06:55.542Z,7.19
2018-04-26T02:09:23.102Z,7.23
2018-04-26T02:11:50.702Z,7.09
2018-04-26T02:14:18.269Z,7.12
2018-04-26T02:16:45.813Z,7.19
2018-04-26T02:19:13.431Z,7.16
2018-04-26T02:21:41.019Z,7.22
2018-04-26T02:24:08.660Z,7.15
2018-04-26T02:26:36.213Z,7.08
2018-04-26T02:29:03.741Z,7.03
2018-04-26T02:31:31.295Z,7.13
2018-04-26T02:33:58.823Z,7.09
2018-04-26T02:36:26.397Z,7.01
2018-04-26T02:38:53.927Z,6.99
2018-04-26T02:41:21.501Z,7.00
2018-04-26T02:43:49.030Z,7.05
2018-04-26T02:46:16.686Z,7.13
2018-04-26T02:48:44.863Z,7.10
2018-04-26T02:51:12.430Z,7.18
2018-04-26T02:53:39.964Z,7.17
2018-04-26T02:56:07.542Z,7.30
2018-04-26T02:58:35.099Z,7.27
2018-04-26T03:01:02.657Z,7.39
2018-04-26T03:03:30.324Z,7.07
2018-04-26T03:05:57.876Z,7.16
2018-04-26T03:08:25.548Z,7.32
2018-04-26T03:10:53.034Z,7.37
2018-04-26T03:13:20.559Z,7.09
2018-04-26T03:15:48.138Z,7.28
2018-04-26T03:18:15.673Z,7.11
2018-04-26T03:20:43.235Z,7.06
2018-04-26T03:23:10.790Z,6.80
2018-04-26T03:25:38.316Z,7.03
2018-04-26T03:28:05.919Z,7.14
2018-04-26T03:30:33.479Z,7.05
2018-04-26T03:33:01.134Z,7.07
2018-04-26T03:35:28.650Z,7.26
2018-04-26T03:37:56.254Z,7.09
2018-04-26T03:40:23.823Z,7.33
2018-04-26T03:42:51.412Z,7.37
2018-04-26T03:45:18.933Z,7.28
2018-04-26T03:47:46.593Z,7.12
2018-04-26T03:50:15.188Z,7.16
2018-04-26T03:52:42.844Z,7.18
2018-04-26T03:55:10.371Z,6.98
2018-04-26T03:57:37.958Z,7.15
2018-04-26T04:00:17.374Z,7.21
2018-04-26T04:02:57.055Z,7.37
2018-04-26T04:05:36.422Z,7.34
2018-04-26T04:08:04.036Z,7.13
2018-04-26T04:10:31.556Z,7.01
2018-04-26T04:12:59.160Z,7.12
2018-04-26T04:15:26.715Z,6.90
2018-04-26T04:17:54.375Z,6.83
2018-04-26T04:20:21.934Z,6.83
2018-04-26T04:22:49.601Z,6.89
2018-04-26T04:25:17.670Z,6.82
2018-04-26T04:27:45.330Z,6.83
2018-04-26T04:30:12.852Z,6.89
2018-04-26T04:32:40.826Z,6.99
2018-04-26T04:35:08.451Z,6.99
2018-04-26T04:37:36.081Z,6.93
2018-04-26T04:40:03.635Z,6.97
2018-04-26T04:42:31.335Z,7.03
2018-04-26T04:44:58.963Z,7.08
2018-04-26T04:47:26.509Z,7.07
2018-04-26T04:49:54.041Z,7.14
2018-04-26T04:52:21.596Z,6.97
2018-04-26T04:54:49.918Z,6.87
2018-04-26T04:57:20.020Z,6.99
2018-04-26T04:59:47.701Z,7.08
2018-04-26T05:02:23.919Z,7.02
2018-04-26T05:04:51.623Z,7.10
2018-04-26T05:07:21.481Z,7.08
2018-04-26T05:09:50.743Z,7.07
2018-04-26T05:12:21.137Z,7.10
2018-04-26T05:14:55.107Z,7.23
2018-04-26T05:17:22.665Z,7.01
2018-04-26T05:19:50.267Z,7.08
2018-04-26T05:22:17.826Z,7.12
2018-04-26T05:24:45.350Z,7.13
2018-04-26T05:27:14.096Z,7.21
2018-04-26T05:29:41.759Z,7.14
2018-04-26T05:32:09.328Z,7.21
2018-04-26T05:34:37.179Z,7.22
2018-04-26T05:37:07.133Z,7.30
2018-04-26T05:39:34.760Z,7.25
2018-04-26T05:42:02.434Z,7.34
2018-04-26T05:44:30.092Z,7.39
2018-04-26T05:46:57.620Z,7.35
2018-04-26T05:49:25.170Z,7.49
2018-04-26T05:51:52.767Z,7.37
2018-04-26T05:54:20.323Z,7.49
2018-04-26T05:56:47.881Z,7.59
2018-04-26T05:59:15.451Z,7.55
2018-04-26T06:01:43.010Z,7.47
2018-04-26T06:04:10.578Z,7.65
2018-04-26T06:06:38.115Z,7.63
2018-04-26T06:09:05.667Z,7.74
2018-04-26T06:11:33.237Z,7.68
2018-04-26T06:14:00.803Z,7.73
2018-04-26T06:16:28.322Z,7.83
2018-04-26T06:18:55.873Z,7.90
2018-04-26T06:21:23.480Z,7.92
2018-04-26T06:23:51.139Z,8.01
2018-04-26T06:26:18.711Z,8.34
2018-04-26T06:28:46.250Z,8.12
2018-04-26T06:31:15.313Z,8.20
2018-04-26T06:33:42.912Z,8.29
2018-04-26T06:36:10.476Z,8.23
2018-04-26T06:38:38.135Z,8.36
2018-04-26T06:41:05.695Z,8.51
2018-04-26T06:43:33.264Z,8.66
2018-04-26T06:46:00.810Z,8.84
2018-04-26T06:48:28.368Z,8.95
2018-04-26T06:50:55.929Z,8.75
2018-04-26T06:53:23.547Z,8.67
2018-04-26T06:55:51.009Z,8.84
2018-04-26T06:58:18.610Z,8.73
2018-04-26T07:00:46.184Z,8.82
2018-04-26T07:03:13.680Z,8.78
2018-04-26T07:05:41.236Z,8.83
2018-04-26T07:08:08.769Z,8.92
2018-04-26T07:10:36.322Z,9.01
2018-04-26T07:13:03.874Z,8.95
2018-04-26T07:15:31.425Z,9.00
2018-04-26T07:17:58.950Z,8.89
2018-04-26T07:20:26.506Z,9.00
2018-04-26T07:22:54.035Z,9.02
2018-04-26T07:25:21.582Z,9.17
2018-04-26T07:27:49.784Z,9.16
2018-04-26T07:30:18.841Z,9.38
2018-04-26T07:32:46.841Z,9.42
2018-04-26T07:35:16.759Z,9.66
2018-04-26T07:37:44.394Z,9.63
2018-04-26T07:40:13.666Z,9.62
2018-04-26T07:42:42.448Z,9.39
2018-04-26T07:45:10.122Z,9.47
2018-04-26T07:47:39.925Z,9.54
2018-04-26T07:50:07.554Z,9.55
2018-04-26T07:52:39.148Z,9.48
2018-04-26T07:55:09.819Z,9.68
2018-04-26T07:57:40.922Z,9.99
2018-04-26T08:00:08.738Z,9.82
2018-04-26T08:02:39.440Z,10.19
2018-04-26T08:05:08.720Z,10.34
2018-04-26T08:07:40.068Z,10.15
2018-04-26T08:10:09.624Z,10.15
2018-04-26T08:12:39.721Z,10.30
2018-04-26T08:15:10.363Z,9.75
2018-04-26T08:17:39.960Z,9.81
2018-04-26T08:20:10.262Z,10.08
2018-04-26T08:22:40.084Z,10.31
2018-04-26T08:25:08.549Z,10.17
2018-04-26T08:27:36.145Z,10.35
2018-04-26T08:30:03.791Z,10.38
2018-04-26T08:32:31.946Z,10.46
2018-04-26T08:34:59.502Z,10.34
2018-04-26T08:37:28.348Z,10.71
2018-04-26T08:39:55.953Z,11.01
2018-04-26T08:42:23.512Z,10.88
2018-04-26T08:44:51.260Z,10.47
2018-04-26T08:47:18.838Z,10.54
2018-04-26T08:49:46.404Z,10.42
2018-04-26T08:52:15.450Z,10.88
2018-04-26T08:54:43.039Z,10.92
2018-04-26T08:57:10.618Z,11.40
2018-04-26T09:02:06.437Z,10.85
2018-04-26T09:04:33.970Z,10.52
2018-04-26T09:07:01.497Z,10.67
2018-04-26T09:09:29.072Z,10.57
2018-04-26T09:11:56.600Z,10.50
2018-04-26T09:14:24.139Z,10.75
2018-04-26T09:16:51.671Z,10.75
2018-04-26T09:19:19.361Z,11.23
2018-04-26T09:21:46.888Z,11.32
2018-04-26T09:24:14.414Z,11.49
2018-04-26T09:26:42.043Z,11.19
2018-04-26T09:29:09.573Z,11.11
2018-04-26T09:31:37.121Z,10.85
2018-04-26T09:34:04.648Z,11.11
2018-04-26T09:36:32.200Z,11.28
2018-04-26T09:38:59.818Z,11.81
2018-04-26T09:41:27.407Z,11.68
2018-04-26T09:43:54.934Z,11.89
2018-04-26T09:46:22.481Z,11.70
2018-04-26T09:48:50.012Z,11.59
2018-04-26T09:51:17.563Z,11.22
2018-04-26T09:53:45.192Z,11.18
2018-04-26T09:56:12.766Z,11.53
2018-04-26T09:58:40.290Z,11.23
2018-04-26T10:01:09.625Z,11.22
2018-04-26T10:03:38.981Z,11.04
2018-04-26T10:06:27.073Z,11.13
2018-04-26T10:08:54.689Z,11.62
2018-04-26T10:11:22.231Z,11.66
2018-04-26T10:13:49.790Z,11.86
2018-04-26T10:16:17.336Z,11.71
2018-04-26T10:18:44.941Z,11.59
2018-04-26T10:21:12.524Z,11.80
2018-04-26T10:23:40.072Z,12.15
2018-04-26T10:26:07.703Z,11.77
2018-04-26T10:28:35.297Z,12.21
2018-04-26T10:31:02.848Z,11.90
2018-04-26T10:33:30.410Z,12.71
2018-04-26T10:35:57.960Z,12.04
2018-04-26T10:38:25.477Z,11.83
2018-04-26T10:40:53.007Z,12.20
2018-04-26T10:43:20.662Z,12.26
2018-04-26T10:45:48.357Z,12.42
2018-04-26T10:48:15.972Z,12.57
2018-04-26T10:50:46.467Z,13.01
2018-04-26T10:53:14.370Z,13.04
2018-04-26T10:55:42.136Z,13.01
2018-04-26T10:58:10.087Z,12.69
2018-04-26T11:00:38.377Z,12.64
2018-04-26T11:03:06.346Z,12.63
2018-04-26T11:05:34.529Z,12.18
2018-04-26T11:08:07.255Z,12.43
2018-04-26T11:10:41.237Z,12.61
2018-04-26T11:13:09.493Z,12.73
2018-04-26T11:15:37.204Z,12.83
2018-04-26T11:18:07.918Z,12.81
2018-04-26T11:20:35.446Z,12.48
2018-04-26T11:23:04.304Z,12.50
2018-04-26T11:25:34.249Z,12.69
2018-04-26T11:28:02.165Z,12.33
2018-04-26T11:30:30.053Z,12.44
2018-04-26T11:32:57.765Z,12.75
2018-04-26T11:35:27.358Z,12.98
2018-04-26T11:37:55.705Z,12.64
2018-04-26T11:40:23.664Z,12.46
2018-04-26T11:42:51.668Z,12.72
2018-04-26T11:45:22.292Z,12.62
2018-04-26T11:47:50.397Z,12.64
2018-04-26T11:50:18.149Z,12.89
2018-04-26T11:52:47.947Z,12.81
2018-04-26T11:55:17.623Z,12.79
2018-04-26T11:57:45.959Z,12.69
2018-04-26T12:00:15.747Z,12.88
2018-04-26T12:02:45.747Z,12.91
2018-04-26T12:05:15.508Z,12.77
2018-04-26T12:07:46.314Z,12.88
2018-04-26T12:10:16.354Z,13.01
2018-04-26T12:12:44.117Z,12.98
2018-04-26T12:15:11.646Z,13.27
2018-04-26T12:17:39.197Z,13.56
2018-04-26T12:20:06.730Z,13.61
2018-04-26T12:22:34.328Z,13.30
2018-04-26T12:25:01.867Z,13.21
2018-04-26T12:27:29.428Z,12.92
2018-04-26T12:29:56.957Z,13.33
2018-04-26T12:32:24.510Z,13.21
2018-04-26T12:34:52.014Z,13.46
2018-04-26T12:37:19.567Z,13.51
2018-04-26T12:39:47.092Z,13.75
2018-04-26T12:42:14.653Z,13.73
2018-04-26T12:44:42.197Z,13.95
2018-04-26T12:47:09.749Z,13.99
2018-04-26T12:49:37.383Z,13.74
2018-04-26T12:52:04.902Z,13.96
2018-04-26T12:54:32.454Z,13.72
2018-04-26T12:56:59.982Z,14.36
2018-04-26T12:59:27.533Z,15.02
2018-04-26T13:01:55.081Z,14.37
2018-04-26T13:04:22.640Z,14.04
2018-04-26T13:06:50.165Z,14.64
2018-04-26T13:09:17.720Z,14.07
2018-04-26T13:11:45.244Z,14.14
2018-04-26T13:14:12.889Z,14.19
2018-04-26T13:16:40.378Z,13.99
2018-04-26T13:19:07.999Z,13.82
2018-04-26T13:21:35.533Z,13.83
2018-04-26T13:24:03.273Z,13.98
2018-04-26T13:26:30.807Z,14.09
2018-04-26T13:28:58.362Z,14.39
2018-04-26T13:31:25.883Z,14.66
2018-04-26T13:33:54.165Z,14.64
2018-04-26T13:36:21.769Z,13.99
2018-04-26T13:38:49.395Z,14.49
2018-04-26T13:41:18.592Z,14.87
2018-04-26T13:43:46.523Z,14.63
2018-04-26T13:46:14.101Z,14.59
2018-04-26T13:48:41.679Z,14.31
2018-04-26T13:51:09.537Z,14.53
2018-04-26T13:53:37.302Z,14.56
2018-04-26T13:56:10.235Z,14.69
2018-04-26T13:58:41.058Z,14.50
2018-04-26T14:01:13.259Z,14.73
2018-04-26T14:03:41.445Z,14.86
2018-04-26T14:06:09.139Z,14.80
2018-04-26T14:08:37.473Z,14.86
2018-04-26T14:11:05.220Z,14.23
2018-04-26T14:13:33.146Z,14.22
2018-04-26T14:16:02.048Z,14.10
2018-04-26T14:18:32.759Z,14.08
2018-04-26T14:21:09.533Z,13.94
2018-04-26T14:23:39.459Z,14.11
2018-04-26T14:26:07.537Z,13.99
2018-04-26T14:28:35.092Z,14.10
2018-04-26T14:31:02.640Z,14.13
2018-04-26T14:33:30.363Z,13.94
2018-04-26T14:35:58.171Z,14.35
2018-04-26T14:38:25.750Z,14.53
2018-04-26T14:40:53.274Z,13.94
2018-04-26T14:43:20.951Z,13.92
2018-04-26T14:45:48.935Z,13.90
2018-04-26T14:48:16.482Z,14.07
2018-04-26T14:50:44.332Z,13.86
2018-04-26T14:53:12.265Z,13.99
2018-04-26T14:55:40.102Z,14.70
2018-04-26T14:58:07.693Z,15.25
2018-04-26T15:00:35.247Z,14.97
2018-04-26T15:03:02.842Z,14.82
2018-04-26T15:05:30.540Z,14.53
2018-04-26T15:07:58.080Z,14.82
2018-04-26T15:10:26.333Z,14.80
2018-04-26T15:12:53.916Z,15.09
2018-04-26T15:15:21.472Z,14.93
2018-04-26T15:17:48.991Z,15.08
2018-04-26T15:20:16.530Z,15.43
2018-04-26T15:22:44.165Z,15.13
2018-04-26T15:25:12.043Z,14.80
2018-04-26T15:27:39.622Z,14.38
2018-04-26T15:30:07.242Z,14.16
2018-04-26T15:32:34.746Z,14.28
2018-04-26T15:35:02.302Z,14.33
2018-04-26T15:37:29.823Z,15.05
2018-04-26T15:39:57.456Z,15.34
2018-04-26T15:42:25.002Z,15.45
2018-04-26T15:44:52.558Z,15.98
2018-04-26T15:47:20.085Z,15.80
2018-04-26T15:49:50.065Z,15.89
2018-04-26T15:52:31.940Z,15.92
2018-04-26T15:58:13.004Z,15.23
2018-04-26T16:00:58.143Z,14.96
2018-04-26T16:03:37.677Z,14.79
2018-04-26T16:06:30.701Z,14.58
2018-04-26T16:09:10.289Z,14.49
2018-04-26T16:11:50.969Z,14.36
2018-04-26T16:14:33.877Z,15.11
2018-04-26T16:17:32.412Z,14.64
2018-04-26T16:23:27.239Z,14.13
2018-04-26T16:26:07.852Z,14.04
2018-04-26T16:28:53.098Z,14.08
2018-04-26T16:31:38.994Z,14.11
2018-04-26T16:34:19.045Z,13.96
2018-04-26T16:36:58.637Z,14.27
2018-04-26T16:39:29.234Z,15.17
2018-04-26T16:41:56.807Z,15.50
2018-04-26T16:44:24.683Z,15.42
2018-04-26T16:46:52.166Z,15.31
2018-04-26T16:49:20.376Z,14.74
2018-04-26T16:51:48.316Z,14.63
2018-04-26T16:54:16.352Z,14.99
2018-04-26T16:56:43.945Z,15.12
2018-04-26T16:59:13.703Z,15.27
2018-04-26T17:01:43.549Z,15.11
2018-04-26T17:04:12.604Z,15.26
2018-04-26T17:06:42.153Z,15.26
2018-04-26T17:09:12.119Z,15.17
2018-04-26T17:11:40.704Z,15.23
2018-04-26T17:14:08.212Z,16.15
2018-04-26T17:16:35.845Z,16.22
2018-04-26T17:19:03.400Z,16.24
2018-04-26T17:21:31.044Z,15.79
2018-04-26T17:23:59.384Z,16.47
2018-04-26T17:26:28.100Z,17.00
2018-04-26T17:28:55.785Z,16.66
2018-04-26T17:31:23.971Z,16.66
2018-04-26T17:33:51.951Z,15.98
2018-04-26T17:36:20.046Z,16.05
2018-04-26T17:38:47.586Z,16.30
2018-04-26T17:41:17.069Z,16.63
2018-04-26T17:43:48.087Z,16.43
2018-04-26T17:46:18.965Z,16.50
2018-04-26T17:48:49.673Z,16.30
2018-04-26T17:51:23.522Z,16.22
2018-04-26T17:53:58.098Z,15.72
2018-04-26T17:56:30.284Z,15.60
2018-04-26T17:59:01.053Z,15.47
2018-04-26T18:01:34.786Z,15.07
2018-04-26T18:04:08.266Z,14.85
2018-04-26T18:06:41.463Z,13.84
2018-04-26T18:11:49.215Z,13.14
2018-04-26T18:14:20.325Z,13.19
2018-04-26T18:16:51.665Z,12.92
2018-04-26T18:19:25.871Z,12.89
2018-04-26T18:21:56.824Z,12.85
2018-04-26T18:24:28.902Z,12.68
2018-04-26T18:27:01.227Z,12.56
2018-04-26T18:29:33.187Z,12.54
2018-04-26T18:32:04.621Z,12.46
2018-04-26T18:34:36.282Z,12.40
2018-04-26T18:37:08.009Z,12.32
2018-04-26T18:39:39.697Z,12.19
2018-04-26T18:42:10.652Z,12.18
2018-04-26T18:44:41.540Z,12.08
2018-04-26T18:47:12.443Z,11.99
2018-04-26T18:49:42.945Z,12.00
2018-04-26T18:52:13.551Z,11.92
2018-04-26T18:54:44.465Z,11.81
2018-04-26T18:59:51.536Z,11.77
2018-04-26T19:02:22.400Z,11.82
2018-04-26T19:04:53.136Z,11.78
2018-04-26T19:07:24.177Z,11.50
2018-04-26T19:09:55.088Z,11.57
2018-04-26T19:12:25.623Z,11.53
2018-04-26T19:14:56.722Z,11.48
2018-04-26T19:17:27.528Z,11.55
2018-04-26T19:19:59.538Z,11.58
2018-04-26T19:22:30.729Z,11.44
2018-04-26T19:25:04.139Z,11.32
2018-04-26T19:27:34.868Z,11.36
2018-04-26T19:30:03.345Z,11.26
2018-04-26T19:32:32.937Z,11.19
2018-04-26T19:35:00.619Z,11.30
2018-04-26T19:37:28.151Z,11.33
2018-04-26T19:40:00.193Z,11.28
2018-04-26T19:42:27.749Z,11.23
2018-04-26T19:44:55.301Z,11.11
2018-04-26T19:47:22.899Z,11.06
2018-04-26T19:49:50.555Z,11.00
2018-04-26T19:52:18.074Z,11.03
2018-04-26T19:54:45.705Z,11.04
2018-04-26T19:57:14.411Z,10.90
2018-04-26T19:59:41.967Z,10.52
2018-04-26T20:02:09.490Z,10.50
2018-04-26T20:04:37.001Z,10.74
2018-04-26T20:07:04.568Z,10.66
2018-04-26T20:09:32.127Z,10.56
2018-04-26T20:12:00.129Z,10.51
2018-04-26T20:14:27.706Z,10.27
2018-04-26T20:16:58.668Z,10.17
2018-04-26T20:19:26.234Z,9.93
2018-04-26T20:21:53.790Z,9.94
2018-04-26T20:24:21.310Z,9.99
2018-04-26T20:26:48.947Z,9.96
2018-04-26T20:29:16.441Z,9.86
2018-04-26T20:31:43.999Z,9.77
2018-04-26T20:34:11.545Z,9.51
2018-04-26T20:36:39.073Z,9.56
2018-04-26T20:39:06.626Z,9.54
2018-04-26T20:41:46.117Z,9.49
2018-04-26T20:44:25.488Z,9.62
2018-04-26T20:46:53.003Z,9.51
2018-04-26T20:49:20.561Z,9.33
2018-04-26T20:51:48.089Z,9.31
2018-04-26T20:54:15.629Z,9.36
2018-04-26T20:56:43.166Z,9.31
2018-04-26T20:59:10.667Z,9.27
2018-04-26T21:01:38.620Z,9.09
2018-04-26T21:04:06.220Z,8.90
2018-04-26T21:06:34.675Z,8.91
2018-04-26T21:09:02.204Z,8.60
2018-04-26T21:11:29.753Z,8.86
2018-04-26T21:13:57.334Z,8.84
2018-04-26T21:16:24.910Z,8.91
2018-04-26T21:18:52.436Z,8.72
2018-04-26T21:21:19.988Z,8.61
2018-04-26T21:23:47.514Z,7.69
2018-04-26T21:26:15.066Z,8.08
2018-04-26T21:28:42.640Z,8.24
2018-04-26T21:31:10.130Z,8.54
2018-04-26T21:33:37.673Z,8.42
2018-04-26T21:36:05.225Z,8.41
2018-04-26T21:38:32.777Z,8.35
2018-04-26T21:41:00.341Z,8.34
2018-04-26T21:43:27.876Z,8.30
2018-04-26T21:45:55.411Z,8.18
2018-04-26T21:48:23.020Z,8.19
2018-04-26T21:50:57.216Z,8.21
2018-04-26T21:53:30.442Z,8.22
2018-04-26T21:56:03.517Z,8.09
2018-04-26T21:58:40.143Z,8.07
2018-04-26T22:01:17.201Z,8.08
2018-04-26T22:03:47.595Z,8.09
2018-04-26T22:06:15.447Z,7.97
2018-04-26T22:08:43.311Z,7.93
2018-04-26T22:11:11.534Z,7.96
2018-04-26T22:13:40.914Z,7.96
2018-04-26T22:16:08.937Z,7.44
2018-04-26T22:18:36.590Z,7.64
2018-04-26T22:21:08.757Z,7.62
2018-04-26T22:23:40.768Z,7.53
2018-04-26T22:26:08.521Z,7.62
2018-04-26T22:28:36.249Z,7.51
2018-04-26T22:31:04.306Z,7.45
2018-04-26T22:33:32.336Z,7.47
2018-04-26T22:36:00.377Z,7.53
2018-04-26T22:38:27.906Z,7.55
2018-04-26T22:40:55.781Z,7.62
2018-04-26T22:43:23.441Z,7.75
2018-04-26T22:45:52.168Z,7.55
2018-04-26T22:48:19.816Z,7.85
2018-04-26T22:50:47.418Z,7.69
2018-04-26T22:53:15.021Z,7.53
2018-04-26T22:55:42.930Z,7.23
2018-04-26T22:58:10.526Z,7.43
2018-04-26T23:00:38.104Z,7.46
2018-04-26T23:03:05.710Z,7.60
2018-04-26T23:05:33.227Z,7.73
2018-04-26T23:08:05.711Z,7.49
2018-04-26T23:10:33.486Z,7.39
2018-04-26T23:13:01.114Z,7.47
2018-04-26T23:15:28.838Z,7.56
2018-04-26T23:17:56.761Z,7.45
2018-04-26T23:20:24.292Z,7.24
2018-04-26T23:22:51.929Z,7.29
2018-04-26T23:25:19.614Z,7.18
2018-04-26T23:27:47.304Z,7.22
2018-04-26T23:30:20.103Z,7.25
2018-04-26T23:32:48.310Z,7.38
2018-04-26T23:35:15.836Z,7.39
2018-04-26T23:37:43.459Z,7.17
2018-04-26T23:40:11.083Z,7.00
2018-04-26T23:42:38.844Z,7.12
2018-04-26T23:45:06.733Z,7.27
2018-04-26T23:47:35.541Z,7.09
2018-04-26T23:50:03.101Z,7.18
2018-04-26T23:52:30.726Z,7.21
2018-04-26T23:54:58.277Z,7.15
2018-04-26T23:57:25.806Z,7.19
2018-04-26T23:59:53.353Z,6.97
